Terminal Aerodrome Forecast
Issued by NWS Houston/Galveston, TX

Home | Current Version | Previous Version | Text Only | Print | Product List | Glossary On
Versions: 1 2 3 4 5 6 7 8 9 10 11 12 13 14 15 16 17 18 19 20 21 22 23 24 25 26 27 28 29 30 31 32 33 34 35
000
FTUS44 KHGX 050520
TAFCLL
TAF
KCLL 050520Z 0506/0606 15008KT P6SM SKC
     FM051000 16003KT 6SM BR SCT010
     FM051400 18006KT P6SM FEW030
     FM052000 18009KT P6SM VCSH BKN040
     FM060000 17006KT P6SM SKC=

USA.gov is the U.S. government's official web portal to all federal, state and local government web resources and services.